Terminal Aerodrome Forecast
Issued by NWS Chicago, IL

Home | Current Version | Previous Version | Text Only | Print | Product List | Glossary Off
Versions: 1 2 3 4 5 6 7 8 9 10 11 12 13 14 15 16 17 18 19 20 21 22 23 24 25 26 27 28 29 30 31 32

000
FTUS43 KLOT 201926 AAA
TAFRFD
TAF AMD
KRFD 201926Z 2019/2118 04010KT 5SM -RA SCT010 OVC035
      TEMPO 2019/2021 BKN010
     FM202100 01005KT P6SM VCSH BKN015 OVC035
     FM202300 VRB03KT P6SM BKN040
     FM210200 27006KT P6SM BKN080
     FM211400 28011KT P6SM SCT120=

USA.gov is the U.S. government's official web portal to all federal, state and local government web resources and services.